sensor_id;sensor_type;location;lat;lon;timestamp;P1;durP1;ratioP1;P2;durP2;ratioP2
48751;SDS011;34544;48.836;9.174;2022-08-01T00:01:25;4.28;;;2.30;;
48751;SDS011;34544;48.836;9.174;2022-08-01T00:03:50;4.13;;;1.95;;
48751;SDS011;34544;48.836;9.174;2022-08-01T00:06:16;2.10;;;1.75;;
48751;SDS011;34544;48.836;9.174;2022-08-01T00:08:42;3.03;;;1.77;;
48751;SDS011;34544;48.836;9.174;2022-08-01T00:11:07;3.28;;;1.77;;
48751;SDS011;34544;48.836;9.174;2022-08-01T00:13:34;5.22;;;2.58;;
48751;SDS011;34544;48.836;9.174;2022-08-01T00:16:00;3.97;;;2.03;;
48751;SDS011;34544;48.836;9.174;2022-08-01T00:18:26;3.10;;;2.40;;
48751;SDS011;34544;48.836;9.174;2022-08-01T00:20:51;5.40;;;2.42;;
48751;SDS011;34544;48.836;9.174;2022-08-01T00:23:17;3.58;;;2.05;;
48751;SDS011;34544;48.836;9.174;2022-08-01T00:25:43;4.15;;;1.65;;
48751;SDS011;34544;48.836;9.174;2022-08-01T00:28:08;2.85;;;1.58;;
48751;SDS011;34544;48.836;9.174;2022-08-01T00:30:35;2.35;;;1.67;;
48751;SDS011;34544;48.836;9.174;2022-08-01T00:33:01;2.25;;;1.67;;
48751;SDS011;34544;48.836;9.174;2022-08-01T00:35:27;2.83;;;1.98;;
48751;SDS011;34544;48.836;9.174;2022-08-01T00:37:52;3.75;;;2.00;;
48751;SDS011;34544;48.836;9.174;2022-08-01T00:40:18;4.53;;;2.35;;
48751;SDS011;34544;48.836;9.174;2022-08-01T00:42:44;2.63;;;2.03;;
48751;SDS011;34544;48.836;9.174;2022-08-01T00:45:10;3.65;;;1.80;;
48751;SDS011;34544;48.836;9.174;2022-08-01T00:47:36;3.08;;;2.00;;
48751;SDS011;34544;48.836;9.174;2022-08-01T00:50:06;2.97;;;2.00;;
48751;SDS011;34544;48.836;9.174;2022-08-01T00:52:32;3.15;;;2.20;;
48751;SDS011;34544;48.836;9.174;2022-08-01T00:54:59;3.05;;;1.73;;
48751;SDS011;34544;48.836;9.174;2022-08-01T00:57:25;2.30;;;2.10;;
48751;SDS011;34544;48.836;9.174;2022-08-01T00:59:50;3.17;;;2.13;;
48751;SDS011;34544;48.836;9.174;2022-08-01T01:02:17;3.22;;;2.08;;
48751;SDS011;34544;48.836;9.174;2022-08-01T01:04:43;2.40;;;1.92;;
48751;SDS011;34544;48.836;9.174;2022-08-01T01:07:13;2.85;;;2.20;;
48751;SDS011;34544;48.836;9.174;2022-08-01T01:09:56;2.42;;;2.08;;
48751;SDS011;34544;48.836;9.174;2022-08-01T01:12:30;2.20;;;1.88;;
48751;SDS011;34544;48.836;9.174;2022-08-01T01:15:27;2.17;;;1.90;;
48751;SDS011;34544;48.836;9.174;2022-08-01T01:18:09;3.13;;;2.20;;
48751;SDS011;34544;48.836;9.174;2022-08-01T01:20:46;4.20;;;1.92;;
48751;SDS011;34544;48.836;9.174;2022-08-01T01:31:50;2.50;;;2.20;;
48751;SDS011;34544;48.836;9.174;2022-08-01T01:34:27;2.20;;;2.00;;
48751;SDS011;34544;48.836;9.174;2022-08-01T01:36:54;2.88;;;1.60;;
48751;SDS011;34544;48.836;9.174;2022-08-01T01:39:23;2.97;;;1.67;;
48751;SDS011;34544;48.836;9.174;2022-08-01T01:41:51;3.17;;;2.28;;
48751;SDS011;34544;48.836;9.174;2022-08-01T01:44:19;2.83;;;1.98;;
48751;SDS011;34544;48.836;9.174;2022-08-01T01:46:45;3.70;;;2.30;;
48751;SDS011;34544;48.836;9.174;2022-08-01T01:49:13;2.65;;;2.35;;
48751;SDS011;34544;48.836;9.174;2022-08-01T01:51:40;3.83;;;2.58;;
48751;SDS011;34544;48.836;9.174;2022-08-01T01:54:08;4.07;;;2.22;;
48751;SDS011;34544;48.836;9.174;2022-08-01T01:56:35;2.40;;;2.20;;
48751;SDS011;34544;48.836;9.174;2022-08-01T01:59:13;2.17;;;1.98;;
48751;SDS011;34544;48.836;9.174;2022-08-01T02:01:44;3.78;;;2.30;;
48751;SDS011;34544;48.836;9.174;2022-08-01T02:04:14;3.92;;;2.03;;
48751;SDS011;34544;48.836;9.174;2022-08-01T02:06:40;2.22;;;2.03;;
48751;SDS011;34544;48.836;9.174;2022-08-01T02:09:10;5.47;;;2.35;;
48751;SDS011;34544;48.836;9.174;2022-08-01T02:11:39;3.20;;;2.40;;
48751;SDS011;34544;48.836;9.174;2022-08-01T02:14:05;3.50;;;2.22;;
48751;SDS011;34544;48.836;9.174;2022-08-01T02:16:35;2.20;;;2.00;;
48751;SDS011;34544;48.836;9.174;2022-08-01T02:19:04;2.63;;;2.08;;
48751;SDS011;34544;48.836;9.174;2022-08-01T02:21:32;4.95;;;2.40;;
48751;SDS011;34544;48.836;9.174;2022-08-01T02:24:07;3.33;;;2.08;;
48751;SDS011;34544;48.836;9.174;2022-08-01T02:26:39;2.53;;;1.92;;
48751;SDS011;34544;48.836;9.174;2022-08-01T02:29:10;6.05;;;2.22;;
48751;SDS011;34544;48.836;9.174;2022-08-01T02:31:42;3.22;;;1.92;;
48751;SDS011;34544;48.836;9.174;2022-08-01T02:34:13;2.58;;;2.20;;
48751;SDS011;34544;48.836;9.174;2022-08-01T02:36:42;6.43;;;2.75;;
48751;SDS011;34544;48.836;9.174;2022-08-01T02:39:11;2.30;;;2.10;;
48751;SDS011;34544;48.836;9.174;2022-08-01T02:41:47;1.95;;;1.85;;
48751;SDS011;34544;48.836;9.174;2022-08-01T02:44:24;3.83;;;1.98;;
48751;SDS011;34544;48.836;9.174;2022-08-01T02:46:57;3.85;;;2.20;;
48751;SDS011;34544;48.836;9.174;2022-08-01T02:49:27;4.40;;;1.92;;
48751;SDS011;34544;48.836;9.174;2022-08-01T02:52:07;3.08;;;2.25;;
48751;SDS011;34544;48.836;9.174;2022-08-01T02:54:36;2.28;;;1.92;;
48751;SDS011;34544;48.836;9.174;2022-08-01T02:57:04;4.57;;;2.58;;
48751;SDS011;34544;48.836;9.174;2022-08-01T02:59:32;2.38;;;2.17;;
48751;SDS011;34544;48.836;9.174;2022-08-01T03:02:02;2.22;;;1.98;;
48751;SDS011;34544;48.836;9.174;2022-08-01T03:04:30;2.22;;;1.92;;
48751;SDS011;34544;48.836;9.174;2022-08-01T03:06:58;2.70;;;2.10;;
48751;SDS011;34544;48.836;9.174;2022-08-01T03:09:28;6.90;;;2.35;;
48751;SDS011;34544;48.836;9.174;2022-08-01T03:11:55;2.53;;;2.30;;
48751;SDS011;34544;48.836;9.174;2022-08-01T03:14:26;3.10;;;2.13;;
48751;SDS011;34544;48.836;9.174;2022-08-01T03:16:53;3.10;;;2.30;;
48751;SDS011;34544;48.836;9.174;2022-08-01T03:19:20;3.90;;;2.20;;
48751;SDS011;34544;48.836;9.174;2022-08-01T03:21:49;2.40;;;2.20;;
48751;SDS011;34544;48.836;9.174;2022-08-01T03:24:16;2.13;;;1.92;;
48751;SDS011;34544;48.836;9.174;2022-08-01T03:26:43;2.92;;;2.08;;
48751;SDS011;34544;48.836;9.174;2022-08-01T03:29:15;8.80;;;3.00;;
48751;SDS011;34544;48.836;9.174;2022-08-01T03:31:44;5.28;;;2.20;;
48751;SDS011;34544;48.836;9.174;2022-08-01T03:34:13;3.38;;;2.47;;
48751;SDS011;34544;48.836;9.174;2022-08-01T03:36:49;4.00;;;2.25;;
48751;SDS011;34544;48.836;9.174;2022-08-01T03:39:22;3.10;;;2.40;;
48751;SDS011;34544;48.836;9.174;2022-08-01T03:42:01;2.78;;;2.33;;
48751;SDS011;34544;48.836;9.174;2022-08-01T03:44:35;3.65;;;2.30;;
48751;SDS011;34544;48.836;9.174;2022-08-01T03:47:05;3.17;;;2.20;;
48751;SDS011;34544;48.836;9.174;2022-08-01T03:49:35;4.03;;;2.50;;
48751;SDS011;34544;48.836;9.174;2022-08-01T03:52:09;2.53;;;2.25;;
48751;SDS011;34544;48.836;9.174;2022-08-01T03:54:36;3.53;;;2.28;;
48751;SDS011;34544;48.836;9.174;2022-08-01T03:57:05;3.08;;;2.55;;
48751;SDS011;34544;48.836;9.174;2022-08-01T03:59:31;2.63;;;2.08;;
48751;SDS011;34544;48.836;9.174;2022-08-01T04:02:01;2.95;;;2.30;;
48751;SDS011;34544;48.836;9.174;2022-08-01T04:04:27;4.90;;;2.13;;
48751;SDS011;34544;48.836;9.174;2022-08-01T04:06:53;4.10;;;2.40;;
48751;SDS011;34544;48.836;9.174;2022-08-01T04:09:20;2.50;;;2.22;;
48751;SDS011;34544;48.836;9.174;2022-08-01T04:11:49;3.08;;;2.45;;
48751;SDS011;34544;48.836;9.174;2022-08-01T04:14:15;9.45;;;3.00;;
48751;SDS011;34544;48.836;9.174;2022-08-01T04:16:40;3.25;;;2.92;;
48751;SDS011;34544;48.836;9.174;2022-08-01T04:19:06;8.77;;;2.65;;
48751;SDS011;34544;48.836;9.174;2022-08-01T04:21:32;3.47;;;2.28;;
48751;SDS011;34544;48.836;9.174;2022-08-01T04:24:02;2.35;;;2.10;;
48751;SDS011;34544;48.836;9.174;2022-08-01T04:26:36;3.50;;;1.90;;
48751;SDS011;34544;48.836;9.174;2022-08-01T04:29:03;4.85;;;1.88;;
48751;SDS011;34544;48.836;9.174;2022-08-01T04:31:31;5.60;;;2.65;;
48751;SDS011;34544;48.836;9.174;2022-08-01T04:33:59;3.60;;;2.28;;
48751;SDS011;34544;48.836;9.174;2022-08-01T04:36:27;3.25;;;2.45;;
48751;SDS011;34544;48.836;9.174;2022-08-01T04:38:56;4.07;;;2.03;;
48751;SDS011;34544;48.836;9.174;2022-08-01T04:41:25;2.72;;;2.00;;
48751;SDS011;34544;48.836;9.174;2022-08-01T04:43:51;7.10;;;2.42;;
48751;SDS011;34544;48.836;9.174;2022-08-01T04:46:17;6.80;;;2.67;;
48751;SDS011;34544;48.836;9.174;2022-08-01T04:48:44;2.47;;;2.22;;
48751;SDS011;34544;48.836;9.174;2022-08-01T04:51:17;6.88;;;2.33;;
48751;SDS011;34544;48.836;9.174;2022-08-01T04:53:44;4.70;;;1.98;;
48751;SDS011;34544;48.836;9.174;2022-08-01T04:56:13;3.90;;;2.25;;
48751;SDS011;34544;48.836;9.174;2022-08-01T04:58:43;2.45;;;2.17;;
48751;SDS011;34544;48.836;9.174;2022-08-01T05:01:09;3.17;;;1.92;;
48751;SDS011;34544;48.836;9.174;2022-08-01T05:03:35;2.28;;;1.70;;
48751;SDS011;34544;48.836;9.174;2022-08-01T05:06:01;2.50;;;2.28;;
48751;SDS011;34544;48.836;9.174;2022-08-01T05:08:27;3.10;;;1.58;;
48751;SDS011;34544;48.836;9.174;2022-08-01T05:10:53;3.50;;;2.50;;
48751;SDS011;34544;48.836;9.174;2022-08-01T05:13:19;3.78;;;1.67;;
48751;SDS011;34544;48.836;9.174;2022-08-01T05:15:44;2.80;;;1.70;;
48751;SDS011;34544;48.836;9.174;2022-08-01T05:18:10;1.75;;;1.60;;
48751;SDS011;34544;48.836;9.174;2022-08-01T05:20:36;2.58;;;1.85;;
48751;SDS011;34544;48.836;9.174;2022-08-01T05:23:02;2.90;;;1.80;;
48751;SDS011;34544;48.836;9.174;2022-08-01T05:25:31;2.55;;;1.88;;
48751;SDS011;34544;48.836;9.174;2022-08-01T05:27:58;1.98;;;1.58;;
48751;SDS011;34544;48.836;9.174;2022-08-01T05:30:24;1.65;;;1.38;;
48751;SDS011;34544;48.836;9.174;2022-08-01T05:32:49;3.55;;;1.80;;
48751;SDS011;34544;48.836;9.174;2022-08-01T05:35:15;6.13;;;2.08;;
48751;SDS011;34544;48.836;9.174;2022-08-01T05:37:40;3.85;;;1.67;;
48751;SDS011;34544;48.836;9.174;2022-08-01T05:40:06;3.08;;;1.60;;
48751;SDS011;34544;48.836;9.174;2022-08-01T05:42:32;1.92;;;1.52;;
48751;SDS011;34544;48.836;9.174;2022-08-01T05:44:58;4.75;;;1.83;;
48751;SDS011;34544;48.836;9.174;2022-08-01T05:47:24;1.67;;;1.58;;
48751;SDS011;34544;48.836;9.174;2022-08-01T05:49:49;4.45;;;1.70;;
48751;SDS011;34544;48.836;9.174;2022-08-01T05:52:15;6.57;;;1.90;;
48751;SDS011;34544;48.836;9.174;2022-08-01T05:54:41;6.63;;;1.38;;
48751;SDS011;34544;48.836;9.174;2022-08-01T05:57:06;3.05;;;1.45;;
48751;SDS011;34544;48.836;9.174;2022-08-01T05:59:32;2.05;;;1.38;;
48751;SDS011;34544;48.836;9.174;2022-08-01T06:01:58;2.08;;;1.20;;
48751;SDS011;34544;48.836;9.174;2022-08-01T06:04:23;5.47;;;1.45;;
48751;SDS011;34544;48.836;9.174;2022-08-01T06:06:49;1.80;;;1.13;;
48751;SDS011;34544;48.836;9.174;2022-08-01T06:09:15;3.20;;;1.27;;
48751;SDS011;34544;48.836;9.174;2022-08-01T06:11:40;4.32;;;1.70;;
48751;SDS011;34544;48.836;9.174;2022-08-01T06:14:06;1.77;;;1.40;;
48751;SDS011;34544;48.836;9.174;2022-08-01T06:16:38;1.52;;;1.42;;
48751;SDS011;34544;48.836;9.174;2022-08-01T06:19:04;2.80;;;1.60;;
48751;SDS011;34544;48.836;9.174;2022-08-01T06:21:29;1.55;;;1.20;;
48751;SDS011;34544;48.836;9.174;2022-08-01T06:23:55;2.72;;;1.20;;
48751;SDS011;34544;48.836;9.174;2022-08-01T06:26:20;2.60;;;1.30;;
48751;SDS011;34544;48.836;9.174;2022-08-01T06:28:46;1.58;;;1.20;;
48751;SDS011;34544;48.836;9.174;2022-08-01T06:31:12;2.38;;;1.30;;
48751;SDS011;34544;48.836;9.174;2022-08-01T06:33:39;1.50;;;1.20;;
48751;SDS011;34544;48.836;9.174;2022-08-01T06:36:05;1.10;;;1.00;;
48751;SDS011;34544;48.836;9.174;2022-08-01T06:38:31;1.63;;;1.15;;
48751;SDS011;34544;48.836;9.174;2022-08-01T06:40:56;1.63;;;1.20;;
48751;SDS011;34544;48.836;9.174;2022-08-01T06:43:22;3.15;;;1.30;;
48751;SDS011;34544;48.836;9.174;2022-08-01T06:45:48;1.30;;;1.00;;
48751;SDS011;34544;48.836;9.174;2022-08-01T06:48:14;1.33;;;0.80;;
48751;SDS011;34544;48.836;9.174;2022-08-01T06:50:40;1.88;;;1.33;;
48751;SDS011;34544;48.836;9.174;2022-08-01T06:53:06;1.23;;;0.90;;
48751;SDS011;34544;48.836;9.174;2022-08-01T06:55:31;2.83;;;0.57;;
48751;SDS011;34544;48.836;9.174;2022-08-01T06:57:57;3.17;;;1.17;;
48751;SDS011;34544;48.836;9.174;2022-08-01T07:00:23;1.48;;;1.30;;
48751;SDS011;34544;48.836;9.174;2022-08-01T07:02:51;1.55;;;0.82;;
48751;SDS011;34544;48.836;9.174;2022-08-01T07:05:20;2.45;;;1.10;;
48751;SDS011;34544;48.836;9.174;2022-08-01T07:07:46;1.25;;;0.77;;
48751;SDS011;34544;48.836;9.174;2022-08-01T07:10:13;3.80;;;1.33;;
48751;SDS011;34544;48.836;9.174;2022-08-01T07:12:39;1.42;;;0.85;;
48751;SDS011;34544;48.836;9.174;2022-08-01T07:15:06;3.80;;;1.25;;
48751;SDS011;34544;48.836;9.174;2022-08-01T07:17:37;1.02;;;0.60;;
48751;SDS011;34544;48.836;9.174;2022-08-01T07:20:07;4.30;;;1.15;;
48751;SDS011;34544;48.836;9.174;2022-08-01T07:22:34;2.13;;;1.17;;
48751;SDS011;34544;48.836;9.174;2022-08-01T07:25:00;1.65;;;0.85;;
48751;SDS011;34544;48.836;9.174;2022-08-01T07:27:26;1.17;;;1.00;;
48751;SDS011;34544;48.836;9.174;2022-08-01T07:29:51;3.08;;;0.90;;
48751;SDS011;34544;48.836;9.174;2022-08-01T07:32:17;2.00;;;0.75;;
48751;SDS011;34544;48.836;9.174;2022-08-01T07:34:43;0.77;;;0.77;;
48751;SDS011;34544;48.836;9.174;2022-08-01T07:37:08;2.45;;;1.13;;
48751;SDS011;34544;48.836;9.174;2022-08-01T07:39:34;1.17;;;1.08;;
48751;SDS011;34544;48.836;9.174;2022-08-01T07:41:59;3.15;;;1.30;;
48751;SDS011;34544;48.836;9.174;2022-08-01T07:44:25;2.60;;;1.50;;
48751;SDS011;34544;48.836;9.174;2022-08-01T07:46:51;1.55;;;0.93;;
48751;SDS011;34544;48.836;9.174;2022-08-01T07:49:16;2.55;;;1.25;;
48751;SDS011;34544;48.836;9.174;2022-08-01T07:51:42;0.70;;;0.70;;
48751;SDS011;34544;48.836;9.174;2022-08-01T07:54:07;2.17;;;1.27;;
48751;SDS011;34544;48.836;9.174;2022-08-01T07:56:33;2.25;;;1.20;;
48751;SDS011;34544;48.836;9.174;2022-08-01T07:58:59;0.95;;;0.85;;
48751;SDS011;34544;48.836;9.174;2022-08-01T08:01:24;3.65;;;1.15;;
48751;SDS011;34544;48.836;9.174;2022-08-01T08:03:50;1.15;;;0.95;;
48751;SDS011;34544;48.836;9.174;2022-08-01T08:06:15;2.95;;;1.50;;
48751;SDS011;34544;48.836;9.174;2022-08-01T08:08:41;5.95;;;1.38;;
48751;SDS011;34544;48.836;9.174;2022-08-01T08:11:07;2.25;;;1.40;;
48751;SDS011;34544;48.836;9.174;2022-08-01T08:13:32;2.08;;;1.50;;
48751;SDS011;34544;48.836;9.174;2022-08-01T08:15:58;1.60;;;1.02;;
48751;SDS011;34544;48.836;9.174;2022-08-01T08:18:24;0.77;;;0.75;;
48751;SDS011;34544;48.836;9.174;2022-08-01T08:20:50;1.40;;;1.15;;
48751;SDS011;34544;48.836;9.174;2022-08-01T08:23:16;2.25;;;1.00;;
48751;SDS011;34544;48.836;9.174;2022-08-01T08:26:00;1.13;;;0.90;;
48751;SDS011;34544;48.836;9.174;2022-08-01T08:28:25;3.08;;;1.00;;
48751;SDS011;34544;48.836;9.174;2022-08-01T08:30:51;1.55;;;1.15;;
48751;SDS011;34544;48.836;9.174;2022-08-01T08:33:18;1.40;;;1.08;;
48751;SDS011;34544;48.836;9.174;2022-08-01T08:35:43;1.30;;;1.00;;
48751;SDS011;34544;48.836;9.174;2022-08-01T08:38:09;3.78;;;1.50;;
48751;SDS011;34544;48.836;9.174;2022-08-01T08:40:35;0.85;;;0.82;;
48751;SDS011;34544;48.836;9.174;2022-08-01T08:43:03;2.28;;;1.10;;
48751;SDS011;34544;48.836;9.174;2022-08-01T08:45:30;3.75;;;1.30;;
48751;SDS011;34544;48.836;9.174;2022-08-01T08:47:56;4.30;;;1.35;;
48751;SDS011;34544;48.836;9.174;2022-08-01T08:50:23;1.17;;;0.98;;
48751;SDS011;34544;48.836;9.174;2022-08-01T08:52:50;2.22;;;1.17;;
48751;SDS011;34544;48.836;9.174;2022-08-01T08:55:17;3.28;;;1.27;;
48751;SDS011;34544;48.836;9.174;2022-08-01T08:57:44;1.33;;;1.13;;
48751;SDS011;34544;48.836;9.174;2022-08-01T09:00:10;3.95;;;2.03;;
48751;SDS011;34544;48.836;9.174;2022-08-01T09:02:41;4.30;;;1.40;;
48751;SDS011;34544;48.836;9.174;2022-08-01T09:05:08;2.00;;;1.45;;
48751;SDS011;34544;48.836;9.174;2022-08-01T09:07:34;2.45;;;1.23;;
48751;SDS011;34544;48.836;9.174;2022-08-01T09:10:00;2.80;;;1.48;;
48751;SDS011;34544;48.836;9.174;2022-08-01T09:12:26;2.70;;;1.73;;
48751;SDS011;34544;48.836;9.174;2022-08-01T09:14:51;2.65;;;1.52;;
48751;SDS011;34544;48.836;9.174;2022-08-01T09:17:18;1.77;;;1.40;;
48751;SDS011;34544;48.836;9.174;2022-08-01T09:19:49;1.70;;;1.30;;
48751;SDS011;34544;48.836;9.174;2022-08-01T09:22:20;2.13;;;1.58;;
48751;SDS011;34544;48.836;9.174;2022-08-01T09:25:01;4.57;;;1.50;;
48751;SDS011;34544;48.836;9.174;2022-08-01T09:27:27;2.03;;;1.83;;
48751;SDS011;34544;48.836;9.174;2022-08-01T09:29:53;4.10;;;2.17;;
48751;SDS011;34544;48.836;9.174;2022-08-01T09:32:31;2.90;;;1.50;;
48751;SDS011;34544;48.836;9.174;2022-08-01T09:34:56;6.38;;;2.55;;
48751;SDS011;34544;48.836;9.174;2022-08-01T09:37:43;3.90;;;2.38;;
48751;SDS011;34544;48.836;9.174;2022-08-01T09:40:09;2.88;;;2.20;;
48751;SDS011;34544;48.836;9.174;2022-08-01T09:42:34;3.92;;;2.28;;
48751;SDS011;34544;48.836;9.174;2022-08-01T09:45:00;4.78;;;2.75;;
48751;SDS011;34544;48.836;9.174;2022-08-01T09:47:36;3.28;;;2.75;;
48751;SDS011;34544;48.836;9.174;2022-08-01T09:50:05;2.80;;;2.25;;
48751;SDS011;34544;48.836;9.174;2022-08-01T09:52:32;4.40;;;3.15;;
48751;SDS011;34544;48.836;9.174;2022-08-01T09:54:59;4.70;;;2.72;;
48751;SDS011;34544;48.836;9.174;2022-08-01T09:57:26;6.88;;;2.97;;
48751;SDS011;34544;48.836;9.174;2022-08-01T09:59:53;3.85;;;2.67;;
48751;SDS011;34544;48.836;9.174;2022-08-01T10:02:28;3.65;;;2.75;;
48751;SDS011;34544;48.836;9.174;2022-08-01T10:04:53;3.75;;;2.78;;
48751;SDS011;34544;48.836;9.174;2022-08-01T10:07:19;3.50;;;2.60;;
48751;SDS011;34544;48.836;9.174;2022-08-01T10:09:47;4.93;;;2.70;;
48751;SDS011;34544;48.836;9.174;2022-08-01T10:12:17;3.10;;;2.80;;
48751;SDS011;34544;48.836;9.174;2022-08-01T10:14:45;3.25;;;2.70;;
48751;SDS011;34544;48.836;9.174;2022-08-01T10:17:14;3.88;;;2.72;;
48751;SDS011;34544;48.836;9.174;2022-08-01T10:19:42;2.28;;;1.92;;
48751;SDS011;34544;48.836;9.174;2022-08-01T10:22:09;4.03;;;1.77;;
48751;SDS011;34544;48.836;9.174;2022-08-01T10:24:41;3.25;;;1.63;;
48751;SDS011;34544;48.836;9.174;2022-08-01T10:27:09;4.18;;;1.73;;
48751;SDS011;34544;48.836;9.174;2022-08-01T10:32:21;2.63;;;1.55;;
48751;SDS011;34544;48.836;9.174;2022-08-01T10:34:51;4.22;;;1.75;;
48751;SDS011;34544;48.836;9.174;2022-08-01T10:37:18;1.95;;;1.20;;
48751;SDS011;34544;48.836;9.174;2022-08-01T10:39:44;2.35;;;1.42;;
48751;SDS011;34544;48.836;9.174;2022-08-01T10:42:10;2.55;;;1.30;;
48751;SDS011;34544;48.836;9.174;2022-08-01T10:44:37;1.48;;;1.27;;
48751;SDS011;34544;48.836;9.174;2022-08-01T10:47:10;1.65;;;1.30;;
48751;SDS011;34544;48.836;9.174;2022-08-01T10:52:23;2.50;;;1.48;;
48751;SDS011;34544;48.836;9.174;2022-08-01T10:54:49;5.03;;;2.47;;
48751;SDS011;34544;48.836;9.174;2022-08-01T10:57:43;1.60;;;1.50;;
48751;SDS011;34544;48.836;9.174;2022-08-01T11:00:21;3.22;;;1.13;;
48751;SDS011;34544;48.836;9.174;2022-08-01T11:02:57;2.63;;;1.80;;
48751;SDS011;34544;48.836;9.174;2022-08-01T11:05:25;2.20;;;1.73;;
48751;SDS011;34544;48.836;9.174;2022-08-01T11:07:53;2.17;;;1.50;;
48751;SDS011;34544;48.836;9.174;2022-08-01T11:13:05;2.17;;;1.30;;
48751;SDS011;34544;48.836;9.174;2022-08-01T11:15:36;1.70;;;1.50;;
48751;SDS011;34544;48.836;9.174;2022-08-01T11:20:56;1.50;;;1.30;;
48751;SDS011;34544;48.836;9.174;2022-08-01T11:23:24;2.03;;;1.37;;
48751;SDS011;34544;48.836;9.174;2022-08-01T11:28:19;2.15;;;1.52;;
48751;SDS011;34544;48.836;9.174;2022-08-01T11:38:40;3.13;;;2.25;;
48751;SDS011;34544;48.836;9.174;2022-08-01T11:43:56;2.53;;;1.73;;
48751;SDS011;34544;48.836;9.174;2022-08-01T11:54:29;3.08;;;1.33;;
48751;SDS011;34544;48.836;9.174;2022-08-01T11:56:57;3.28;;;1.92;;
48751;SDS011;34544;48.836;9.174;2022-08-01T11:59:25;3.75;;;2.00;;
48751;SDS011;34544;48.836;9.174;2022-08-01T12:01:51;4.82;;;2.00;;
48751;SDS011;34544;48.836;9.174;2022-08-01T12:04:18;2.28;;;1.90;;
48751;SDS011;34544;48.836;9.174;2022-08-01T12:06:44;2.33;;;2.13;;
48751;SDS011;34544;48.836;9.174;2022-08-01T12:09:16;1.90;;;1.75;;
48751;SDS011;34544;48.836;9.174;2022-08-01T12:11:43;2.72;;;1.70;;
48751;SDS011;34544;48.836;9.174;2022-08-01T12:14:09;1.73;;;1.60;;
48751;SDS011;34544;48.836;9.174;2022-08-01T12:16:40;3.85;;;1.40;;
48751;SDS011;34544;48.836;9.174;2022-08-01T12:19:17;3.17;;;1.73;;
48751;SDS011;34544;48.836;9.174;2022-08-01T12:24:32;1.45;;;1.33;;
48751;SDS011;34544;48.836;9.174;2022-08-01T12:26:59;1.38;;;1.10;;
48751;SDS011;34544;48.836;9.174;2022-08-01T12:29:38;2.40;;;1.58;;
48751;SDS011;34544;48.836;9.174;2022-08-01T12:32:20;1.52;;;1.13;;
48751;SDS011;34544;48.836;9.174;2022-08-01T12:34:56;1.88;;;1.52;;
48751;SDS011;34544;48.836;9.174;2022-08-01T12:37:25;1.25;;;1.15;;
48751;SDS011;34544;48.836;9.174;2022-08-01T12:39:51;4.50;;;1.50;;
48751;SDS011;34544;48.836;9.174;2022-08-01T12:42:17;1.58;;;1.33;;
48751;SDS011;34544;48.836;9.174;2022-08-01T12:44:44;4.10;;;1.88;;
48751;SDS011;34544;48.836;9.174;2022-08-01T12:47:13;1.55;;;1.40;;
48751;SDS011;34544;48.836;9.174;2022-08-01T12:49:41;2.40;;;1.85;;
48751;SDS011;34544;48.836;9.174;2022-08-01T12:52:09;3.05;;;1.38;;
48751;SDS011;34544;48.836;9.174;2022-08-01T12:57:35;2.88;;;1.60;;
48751;SDS011;34544;48.836;9.174;2022-08-01T13:02:35;1.85;;;1.35;;
48751;SDS011;34544;48.836;9.174;2022-08-01T13:05:01;1.55;;;1.45;;
48751;SDS011;34544;48.836;9.174;2022-08-01T13:10:11;1.42;;;1.00;;
48751;SDS011;34544;48.836;9.174;2022-08-01T13:12:39;3.17;;;1.33;;
48751;SDS011;34544;48.836;9.174;2022-08-01T13:15:22;2.00;;;1.35;;
48751;SDS011;34544;48.836;9.174;2022-08-01T13:17:49;4.15;;;1.33;;
48751;SDS011;34544;48.836;9.174;2022-08-01T13:20:32;2.58;;;1.35;;
48751;SDS011;34544;48.836;9.174;2022-08-01T13:23:15;5.03;;;1.40;;
48751;SDS011;34544;48.836;9.174;2022-08-01T13:25:47;2.40;;;1.70;;
48751;SDS011;34544;48.836;9.174;2022-08-01T13:28:15;1.45;;;1.33;;
48751;SDS011;34544;48.836;9.174;2022-08-01T13:31:07;4.82;;;1.35;;
48751;SDS011;34544;48.836;9.174;2022-08-01T13:33:47;1.42;;;1.33;;
48751;SDS011;34544;48.836;9.174;2022-08-01T13:36:13;1.55;;;1.10;;
48751;SDS011;34544;48.836;9.174;2022-08-01T13:38:39;1.15;;;1.00;;
48751;SDS011;34544;48.836;9.174;2022-08-01T13:41:26;2.25;;;0.90;;
48751;SDS011;34544;48.836;9.174;2022-08-01T13:43:52;1.17;;;1.10;;
48751;SDS011;34544;48.836;9.174;2022-08-01T13:46:18;2.13;;;1.23;;
48751;SDS011;34544;48.836;9.174;2022-08-01T13:48:44;1.80;;;1.05;;
48751;SDS011;34544;48.836;9.174;2022-08-01T13:51:09;4.22;;;1.52;;
48751;SDS011;34544;48.836;9.174;2022-08-01T13:53:35;3.10;;;1.20;;
48751;SDS011;34544;48.836;9.174;2022-08-01T13:56:01;2.35;;;1.35;;
48751;SDS011;34544;48.836;9.174;2022-08-01T13:58:27;2.40;;;1.45;;
48751;SDS011;34544;48.836;9.174;2022-08-01T14:00:53;1.70;;;1.10;;
48751;SDS011;34544;48.836;9.174;2022-08-01T14:03:20;2.90;;;1.30;;
48751;SDS011;34544;48.836;9.174;2022-08-01T14:05:47;1.20;;;1.10;;
48751;SDS011;34544;48.836;9.174;2022-08-01T14:08:12;2.17;;;1.55;;
48751;SDS011;34544;48.836;9.174;2022-08-01T14:10:38;1.40;;;1.30;;
48751;SDS011;34544;48.836;9.174;2022-08-01T14:13:04;1.27;;;1.08;;
48751;SDS011;34544;48.836;9.174;2022-08-01T14:15:30;1.27;;;1.15;;
48751;SDS011;34544;48.836;9.174;2022-08-01T14:17:57;2.60;;;1.48;;
48751;SDS011;34544;48.836;9.174;2022-08-01T14:20:23;2.00;;;1.63;;
48751;SDS011;34544;48.836;9.174;2022-08-01T14:22:48;1.98;;;1.45;;
48751;SDS011;34544;48.836;9.174;2022-08-01T14:25:14;2.58;;;1.50;;
48751;SDS011;34544;48.836;9.174;2022-08-01T14:27:40;2.03;;;1.30;;
48751;SDS011;34544;48.836;9.174;2022-08-01T14:30:07;1.38;;;1.27;;
48751;SDS011;34544;48.836;9.174;2022-08-01T14:32:33;2.78;;;1.48;;
48751;SDS011;34544;48.836;9.174;2022-08-01T14:35:03;1.50;;;1.35;;
48751;SDS011;34544;48.836;9.174;2022-08-01T14:37:31;1.92;;;1.27;;
48751;SDS011;34544;48.836;9.174;2022-08-01T14:39:57;2.47;;;1.25;;
48751;SDS011;34544;48.836;9.174;2022-08-01T14:42:23;1.33;;;1.23;;
48751;SDS011;34544;48.836;9.174;2022-08-01T14:44:49;3.90;;;1.50;;
48751;SDS011;34544;48.836;9.174;2022-08-01T14:47:15;4.43;;;1.58;;
48751;SDS011;34544;48.836;9.174;2022-08-01T14:49:41;1.85;;;1.30;;
48751;SDS011;34544;48.836;9.174;2022-08-01T14:52:07;1.45;;;1.15;;
48751;SDS011;34544;48.836;9.174;2022-08-01T14:54:32;1.63;;;0.90;;
48751;SDS011;34544;48.836;9.174;2022-08-01T14:56:58;3.13;;;1.25;;
48751;SDS011;34544;48.836;9.174;2022-08-01T14:59:23;1.95;;;1.63;;
48751;SDS011;34544;48.836;9.174;2022-08-01T15:01:49;2.08;;;1.20;;
48751;SDS011;34544;48.836;9.174;2022-08-01T15:04:15;1.77;;;1.40;;
48751;SDS011;34544;48.836;9.174;2022-08-01T15:06:42;1.90;;;1.40;;
48751;SDS011;34544;48.836;9.174;2022-08-01T15:09:08;1.15;;;1.08;;
48751;SDS011;34544;48.836;9.174;2022-08-01T15:11:33;1.75;;;1.65;;
48751;SDS011;34544;48.836;9.174;2022-08-01T15:13:59;2.38;;;1.80;;
48751;SDS011;34544;48.836;9.174;2022-08-01T15:16:43;2.03;;;1.27;;
48751;SDS011;34544;48.836;9.174;2022-08-01T15:19:09;1.35;;;1.00;;
48751;SDS011;34544;48.836;9.174;2022-08-01T15:21:34;1.45;;;0.88;;
48751;SDS011;34544;48.836;9.174;2022-08-01T15:24:00;2.22;;;1.13;;
48751;SDS011;34544;48.836;9.174;2022-08-01T15:26:26;2.10;;;1.15;;
48751;SDS011;34544;48.836;9.174;2022-08-01T15:28:53;1.50;;;1.33;;
48751;SDS011;34544;48.836;9.174;2022-08-01T15:31:18;1.75;;;1.00;;
48751;SDS011;34544;48.836;9.174;2022-08-01T15:33:44;2.58;;;1.10;;
48751;SDS011;34544;48.836;9.174;2022-08-01T15:36:10;1.10;;;1.00;;
48751;SDS011;34544;48.836;9.174;2022-08-01T15:38:36;1.35;;;1.20;;
48751;SDS011;34544;48.836;9.174;2022-08-01T15:41:02;3.10;;;0.98;;
48751;SDS011;34544;48.836;9.174;2022-08-01T15:43:27;1.70;;;1.15;;
48751;SDS011;34544;48.836;9.174;2022-08-01T15:45:53;1.42;;;1.23;;